Time;durP1;ratioP1;P1;durP2;ratioP2;P2;SDS_P1;SDS_P2;PMS_P1;PMS_P2;Temp;Humidity;BMP_temperature;BMP_pressure;BME280_temperature;BME280_humidity;BME280_pressure;Samples;Min_cycle;Max_cycle;Signal;HPM_P1;HPM_P2
2022/05/27 00:01:29;;;;;;;2.12;1.40;;;17.70;59.10;;;;;;944149;149;27344;-75
2022/05/27 00:03:56;;;;;;;3.53;2.37;;;17.70;59.30;;;;;;944096;149;27274;-74
2022/05/27 00:06:22;;;;;;;1.40;1.07;;;17.60;59.30;;;;;;943716;149;27527;-75
2022/05/27 00:08:49;;;;;;;2.50;1.22;;;17.60;59.50;;;;;;944202;149;27469;-75
2022/05/27 00:11:16;;;;;;;1.70;1.20;;;17.60;59.50;;;;;;944280;149;28376;-74
2022/05/27 00:13:42;;;;;;;1.07;1.07;;;17.60;59.60;;;;;;944507;149;27278;-74
2022/05/27 00:16:09;;;;;;;1.50;1.40;;;17.60;59.60;;;;;;944299;149;27346;-74
2022/05/27 00:18:35;;;;;;;1.42;1.32;;;17.60;59.70;;;;;;943337;149;27450;-74
2022/05/27 00:21:02;;;;;;;2.37;1.30;;;17.60;59.70;;;;;;945013;149;27451;-75
2022/05/27 00:23:28;;;;;;;1.30;1.20;;;17.60;59.80;;;;;;943258;149;27472;-75
2022/05/27 00:25:55;;;;;;;1.50;1.40;;;17.60;59.80;;;;;;943255;149;27323;-75
2022/05/27 00:28:22;;;;;;;3.80;1.40;;;17.60;60.00;;;;;;944108;149;27312;-75
2022/05/27 00:30:48;;;;;;;1.13;1.00;;;17.60;60.00;;;;;;944310;149;27304;-74
2022/05/27 00:33:15;;;;;;;1.90;1.70;;;17.50;60.00;;;;;;944127;149;27474;-75
2022/05/27 00:35:41;;;;;;;2.35;1.35;;;17.50;60.10;;;;;;943962;149;27894;-74
2022/05/27 00:38:08;;;;;;;4.80;1.73;;;17.50;60.20;;;;;;943696;149;27312;-75
2022/05/27 00:40:35;;;;;;;1.80;1.20;;;17.50;60.40;;;;;;943855;149;27369;-75
2022/05/27 00:43:01;;;;;;;1.45;1.30;;;17.50;60.30;;;;;;945000;151;27344;-75
2022/05/27 00:45:28;;;;;;;1.72;1.40;;;17.50;60.50;;;;;;945492;151;27443;-75
2022/05/27 00:47:54;;;;;;;1.73;1.20;;;17.40;60.50;;;;;;945891;151;27862;-75
2022/05/27 00:50:21;;;;;;;1.50;1.40;;;17.40;60.90;;;;;;944588;151;27346;-75
2022/05/27 00:52:47;;;;;;;1.57;1.47;;;17.40;60.70;;;;;;945153;151;27306;-74
2022/05/27 00:55:14;;;;;;;2.70;1.20;;;17.40;60.80;;;;;;945252;149;27321;-75
2022/05/27 00:57:49;;;;;;;3.33;1.50;;;17.30;60.80;;;;;;943535;151;27334;-75
2022/05/27 01:00:16;;;;;;;2.13;1.20;;;17.30;61.00;;;;;;944537;151;27472;-74
2022/05/27 01:02:43;;;;;;;2.70;1.20;;;17.30;61.00;;;;;;943889;151;28387;-75
2022/05/27 01:05:09;;;;;;;1.37;1.25;;;17.30;61.20;;;;;;943925;151;27459;-74
2022/05/27 01:07:36;;;;;;;1.52;1.22;;;17.20;61.30;;;;;;942848;151;27422;-74
2022/05/27 01:10:02;;;;;;;1.97;1.27;;;17.20;61.40;;;;;;944794;151;27353;-75
2022/05/27 01:12:38;;;;;;;1.40;1.30;;;17.10;61.40;;;;;;944300;151;27485;-74
2022/05/27 01:15:13;;;;;;;2.33;1.40;;;17.10;61.60;;;;;;924700;151;27275;-74
2022/05/27 01:17:48;;;;;;;1.17;1.00;;;17.10;61.70;;;;;;944687;151;27321;-75
2022/05/27 01:20:33;;;;;;;2.67;1.73;;;17.10;61.80;;;;;;945271;151;27465;-75
2022/05/27 01:23:28;;;;;;;2.27;1.20;;;17.00;61.90;;;;;;944689;151;27372;-75
2022/05/27 01:26:13;;;;;;;2.63;1.50;;;16.90;62.10;;;;;;945399;151;27461;-75
2022/05/27 01:28:39;;;;;;;2.07;1.27;;;16.90;61.90;;;;;;945713;151;27371;-74
2022/05/27 01:31:27;;;;;;;1.97;1.23;;;16.80;62.10;;;;;;945044;151;27369;-75
2022/05/27 01:34:15;;;;;;;1.27;1.17;;;16.80;62.40;;;;;;945350;151;27389;-74
2022/05/27 01:36:47;;;;;;;3.80;1.20;;;16.70;62.40;;;;;;944897;151;27313;-74
2022/05/27 01:39:42;;;;;;;1.77;1.10;;;16.70;62.50;;;;;;945421;151;27352;-74
2022/05/27 01:42:14;;;;;;;1.80;1.70;;;16.60;62.70;;;;;;945484;151;27462;-75
2022/05/27 01:44:47;;;;;;;4.33;1.40;;;16.60;62.90;;;;;;944471;151;27371;-74
2022/05/27 01:47:14;;;;;;;1.73;1.10;;;16.50;63.20;;;;;;942903;151;27357;-74
2022/05/27 01:49:40;;;;;;;1.63;1.40;;;16.50;63.40;;;;;;934541;151;27465;-75
2022/05/27 01:52:22;;;;;;;1.73;1.23;;;16.50;63.80;;;;;;944813;151;28363;-75
2022/05/27 01:55:01;;;;;;;1.63;1.40;;;16.50;64.00;;;;;;944919;151;27431;-74
2022/05/27 01:57:27;;;;;;;2.87;1.20;;;16.50;63.90;;;;;;943309;151;27419;-74
2022/05/27 01:59:57;;;;;;;1.67;1.33;;;16.40;64.10;;;;;;944805;151;27952;-74
2022/05/27 02:02:23;;;;;;;1.50;1.40;;;16.40;64.40;;;;;;944271;151;27880;-74
2022/05/27 02:04:57;;;;;;;2.07;1.40;;;16.40;64.70;;;;;;945530;151;27360;-74
2022/05/27 02:07:22;;;;;;;1.43;1.33;;;16.40;64.70;;;;;;944176;151;27316;-74
2022/05/27 02:09:49;;;;;;;1.40;1.30;;;16.50;64.80;;;;;;944857;151;27341;-74
2022/05/27 02:12:16;;;;;;;1.63;1.20;;;16.40;64.70;;;;;;943515;151;27363;-74
2022/05/27 02:14:45;;;;;;;1.10;1.10;;;16.50;64.90;;;;;;943888;151;27342;-74
2022/05/27 02:17:12;;;;;;;2.27;1.60;;;16.50;64.90;;;;;;944314;151;27381;-74
2022/05/27 02:19:56;;;;;;;2.70;1.53;;;16.40;64.90;;;;;;944655;151;27395;-74
2022/05/27 02:22:26;;;;;;;1.23;1.10;;;16.40;64.90;;;;;;944837;151;27320;-74
2022/05/27 02:24:55;;;;;;;2.10;1.60;;;16.40;64.90;;;;;;944399;151;27274;-75
2022/05/27 02:27:24;;;;;;;3.53;1.60;;;16.40;65.00;;;;;;945053;151;27369;-74
2022/05/27 02:29:50;;;;;;;2.87;1.67;;;16.30;65.30;;;;;;944921;151;27439;-75
2022/05/27 02:32:17;;;;;;;1.50;1.40;;;16.30;65.40;;;;;;944957;151;27321;-74
2022/05/27 02:37:29;;;;;;;2.70;1.40;;;16.30;65.70;;;;;;944821;151;27412;-74
2022/05/27 02:39:55;;;;;;;2.87;1.40;;;16.30;65.70;;;;;;945115;151;27465;-74
2022/05/27 02:42:31;;;;;;;3.10;1.83;;;16.30;65.90;;;;;;944996;151;27474;-74
2022/05/27 02:45:10;;;;;;;3.40;1.30;;;16.20;66.10;;;;;;943863;151;27830;-74
2022/05/27 02:47:57;;;;;;;1.43;1.30;;;16.20;66.10;;;;;;943993;151;27411;-74
2022/05/27 02:50:42;;;;;;;3.20;1.70;;;16.20;66.00;;;;;;927095;151;27301;-74
2022/05/27 02:53:18;;;;;;;1.97;1.40;;;16.20;67.00;;;;;;938897;151;27417;-75
2022/05/27 02:56:05;;;;;;;1.70;1.60;;;16.10;66.20;;;;;;945159;151;27377;-75
2022/05/27 02:58:32;;;;;;;3.80;1.47;;;16.10;66.40;;;;;;945228;151;28458;-75
2022/05/27 03:00:58;;;;;;;2.23;1.60;;;16.10;66.90;;;;;;945530;151;27423;-75
2022/05/27 03:03:25;;;;;;;2.13;1.30;;;16.10;66.80;;;;;;945471;151;27404;-75
2022/05/27 03:06:13;;;;;;;2.37;1.77;;;16.00;67.00;;;;;;945278;151;27302;-76
2022/05/27 03:08:59;;;;;;;4.53;1.53;;;16.00;67.30;;;;;;944376;151;27356;-75
2022/05/27 03:11:27;;;;;;;1.80;1.63;;;16.00;67.50;;;;;;945017;151;27377;-75
2022/05/27 03:14:03;;;;;;;2.83;1.77;;;16.10;67.80;;;;;;945160;151;27388;-75
2022/05/27 03:16:35;;;;;;;1.97;1.50;;;16.10;68.10;;;;;;944975;151;27364;-75
2022/05/27 03:19:26;;;;;;;2.70;1.80;;;16.20;68.20;;;;;;934427;151;27436;-74
2022/05/27 03:22:11;;;;;;;1.93;1.60;;;16.30;68.40;;;;;;945499;151;27484;-75
2022/05/27 03:24:57;;;;;;;2.30;1.23;;;16.40;68.20;;;;;;945199;151;27345;-75
2022/05/27 03:27:23;;;;;;;2.77;1.60;;;16.50;68.30;;;;;;944875;151;27337;-75
2022/05/27 03:29:50;;;;;;;1.70;1.53;;;16.60;68.30;;;;;;942231;151;27437;-75
2022/05/27 03:32:16;;;;;;;1.63;1.50;;;16.60;68.30;;;;;;945334;151;27434;-75
2022/05/27 03:34:53;;;;;;;1.70;1.60;;;16.70;68.40;;;;;;945409;151;27329;-75
2022/05/27 03:37:30;;;;;;;2.83;1.77;;;16.80;68.50;;;;;;944667;151;27317;-74
2022/05/27 03:40:05;;;;;;;2.08;1.70;;;16.90;68.30;;;;;;943848;151;27324;-74
2022/05/27 03:42:32;;;;;;;1.87;1.63;;;17.00;68.20;;;;;;944991;151;28567;-74
2022/05/27 03:45:07;;;;;;;1.40;1.30;;;17.00;68.10;;;;;;945203;151;27380;-74
2022/05/27 03:47:34;;;;;;;2.20;1.57;;;17.10;68.20;;;;;;945062;151;27321;-75
2022/05/27 03:50:00;;;;;;;1.92;1.62;;;17.10;68.10;;;;;;945298;151;27357;-74
2022/05/27 03:52:27;;;;;;;2.03;1.50;;;17.10;68.20;;;;;;945147;149;27497;-74
2022/05/27 03:54:54;;;;;;;3.00;1.77;;;17.20;68.20;;;;;;945568;151;27397;-74
2022/05/27 03:57:21;;;;;;;2.57;1.60;;;17.20;68.10;;;;;;945329;151;27411;-75
2022/05/27 03:59:47;;;;;;;2.03;1.63;;;17.30;68.00;;;;;;944744;151;27258;-74
2022/05/27 04:02:13;;;;;;;1.83;1.70;;;17.30;67.90;;;;;;945325;151;27266;-74
2022/05/27 04:04:40;;;;;;;2.27;1.40;;;17.30;67.80;;;;;;944564;151;27321;-74
2022/05/27 04:07:07;;;;;;;2.10;1.90;;;17.30;68.00;;;;;;945957;151;27450;-74
2022/05/27 04:09:33;;;;;;;1.87;1.67;;;17.30;67.90;;;;;;945282;151;28829;-74
2022/05/27 04:12:00;;;;;;;2.23;2.00;;;17.30;67.90;;;;;;945765;151;27329;-75
2022/05/27 04:14:26;;;;;;;1.60;1.50;;;17.30;67.80;;;;;;945451;151;27337;-74
2022/05/27 04:17:27;;;;;;;1.70;1.60;;;17.30;67.90;;;;;;945845;151;27321;-74
2022/05/27 04:19:19;;;;;;;2.37;2.00;;;17.30;68.00;;;;;;942506;151;27380;-74
2022/05/27 04:21:46;;;;;;;2.22;1.75;;;17.40;68.10;;;;;;945311;151;27377;-75
2022/05/27 04:24:13;;;;;;;2.10;1.90;;;17.30;68.10;;;;;;945074;151;27375;-74
2022/05/27 04:26:39;;;;;;;2.15;1.60;;;17.40;68.20;;;;;;945129;151;27304;-75
2022/05/27 04:29:06;;;;;;;2.30;1.47;;;17.40;68.20;;;;;;945820;151;27326;-75
2022/05/27 04:31:33;;;;;;;2.27;1.92;;;17.40;68.80;;;;;;945214;151;27494;-75
2022/05/27 04:33:59;;;;;;;2.33;1.73;;;17.40;68.30;;;;;;945207;151;27361;-74
2022/05/27 04:36:26;;;;;;;1.77;1.45;;;17.40;68.30;;;;;;945281;151;27365;-75
2022/05/27 04:38:52;;;;;;;1.63;1.53;;;17.50;68.30;;;;;;944754;151;27391;-75
2022/05/27 04:41:21;;;;;;;2.00;1.70;;;17.50;68.30;;;;;;945460;151;27270;-74
2022/05/27 04:43:45;;;;;;;2.20;2.00;;;17.50;68.40;;;;;;944881;149;27450;-75
2022/05/27 04:46:12;;;;;;;1.82;1.65;;;17.60;68.50;;;;;;928546;150;27474;-74
2022/05/27 04:48:39;;;;;;;1.97;1.73;;;17.70;68.60;;;;;;928829;150;27346;-74
2022/05/27 04:51:05;;;;;;;2.00;1.80;;;17.70;68.50;;;;;;944454;148;27327;-75
2022/05/27 04:53:32;;;;;;;1.60;1.47;;;17.80;68.50;;;;;;936558;150;27358;-75
2022/05/27 04:55:58;;;;;;;2.00;1.87;;;17.90;68.50;;;;;;945243;149;27337;-75
2022/05/27 04:58:25;;;;;;;1.82;1.70;;;18.00;68.60;;;;;;944695;149;27361;-74
2022/05/27 05:00:51;;;;;;;1.98;1.77;;;18.00;68.50;;;;;;945748;149;27454;-75
2022/05/27 05:03:18;;;;;;;7.80;2.55;;;18.10;68.50;;;;;;945213;149;27368;-75
2022/05/27 05:05:45;;;;;;;1.80;1.50;;;18.20;68.60;;;;;;945338;149;27299;-75
2022/05/27 05:08:17;;;;;;;1.80;1.55;;;18.30;68.70;;;;;;945582;149;27275;-75
2022/05/27 05:10:44;;;;;;;2.08;1.60;;;18.40;67.90;;;;;;942240;149;27373;-74
2022/05/27 05:13:10;;;;;;;2.05;1.85;;;18.60;68.50;;;;;;945465;149;27379;-75
2022/05/27 05:15:37;;;;;;;2.05;1.70;;;18.70;68.60;;;;;;945804;149;27395;-75
2022/05/27 05:18:03;;;;;;;2.37;1.55;;;18.90;68.40;;;;;;945418;149;27397;-74
2022/05/27 05:20:30;;;;;;;3.00;1.80;;;19.10;68.40;;;;;;944506;149;27361;-75
2022/05/27 05:22:56;;;;;;;2.85;1.57;;;19.20;68.00;;;;;;946488;149;27454;-75
2022/05/27 05:25:23;;;;;;;3.02;1.60;;;19.40;67.80;;;;;;945442;149;27458;-75
2022/05/27 05:27:50;;;;;;;2.00;1.65;;;19.50;67.50;;;;;;945522;149;27329;-75
2022/05/27 05:30:16;;;;;;;2.25;1.62;;;19.70;67.30;;;;;;945359;149;27466;-75
2022/05/27 05:32:43;;;;;;;1.60;1.50;;;19.90;66.90;;;;;;945441;149;27294;-75
2022/05/27 05:35:09;;;;;;;2.35;1.60;;;20.00;66.60;;;;;;945474;149;27340;-75
2022/05/27 05:37:36;;;;;;;1.82;1.65;;;20.10;66.00;;;;;;946411;149;27341;-76
2022/05/27 05:40:03;;;;;;;1.92;1.37;;;20.20;65.50;;;;;;945729;149;28306;-75
2022/05/27 05:42:29;;;;;;;3.22;1.60;;;20.30;65.20;;;;;;945123;149;27347;-75
2022/05/27 05:44:58;;;;;;;1.47;1.37;;;20.40;65.00;;;;;;946363;149;27519;-75
2022/05/27 05:47:22;;;;;;;1.95;1.30;;;20.40;64.90;;;;;;944909;149;27351;-75
2022/05/27 05:49:49;;;;;;;1.60;1.50;;;20.50;64.70;;;;;;945269;149;27451;-75
2022/05/27 05:52:16;;;;;;;1.85;1.50;;;20.50;64.70;;;;;;945376;149;27501;-75
2022/05/27 05:54:42;;;;;;;1.70;1.60;;;20.60;64.50;;;;;;945030;149;27298;-75
2022/05/27 05:57:09;;;;;;;2.10;1.60;;;20.70;64.50;;;;;;944978;149;27336;-75
2022/05/27 05:59:36;;;;;;;1.50;1.40;;;20.80;64.50;;;;;;944784;149;27286;-75
2022/05/27 06:02:02;;;;;;;1.72;1.50;;;20.90;64.30;;;;;;946173;149;27431;-75
2022/05/27 06:04:29;;;;;;;5.08;1.45;;;21.10;64.30;;;;;;944499;149;27361;-75
2022/05/27 06:06:55;;;;;;;2.35;1.40;;;21.20;64.30;;;;;;945283;149;27394;-75
2022/05/27 06:09:25;;;;;;;1.70;1.60;;;21.40;64.20;;;;;;945392;149;27330;-75
2022/05/27 06:11:48;;;;;;;1.52;1.42;;;21.60;63.80;;;;;;944210;149;27419;-75
2022/05/27 06:14:15;;;;;;;1.65;1.30;;;21.80;63.20;;;;;;945315;149;27305;-75
2022/05/27 06:16:41;;;;;;;1.50;1.40;;;21.90;62.50;;;;;;945367;149;27950;-74
2022/05/27 06:19:08;;;;;;;1.17;1.12;;;22.10;62.00;;;;;;945434;149;27356;-74
2022/05/27 06:21:35;;;;;;;1.20;0.98;;;22.20;61.50;;;;;;945578;149;27349;-75
2022/05/27 06:24:01;;;;;;;2.08;1.10;;;22.20;61.10;;;;;;945658;149;27302;-74
2022/05/27 06:26:28;;;;;;;1.47;1.37;;;22.30;60.80;;;;;;944684;149;27369;-74
2022/05/27 06:34:24;;;;;;;0.88;0.85;;;22.10;60.00;;;;;;944771;149;27435;-75
2022/05/27 06:36:50;;;;;;;2.02;1.00;;;22.10;60.10;;;;;;945200;149;27362;-76
2022/05/27 06:39:17;;;;;;;1.17;1.10;;;22.00;60.00;;;;;;944901;149;28071;-75
2022/05/27 06:41:43;;;;;;;2.92;1.55;;;21.90;60.10;;;;;;945195;149;27365;-75
2022/05/27 06:44:10;;;;;;;1.07;1.02;;;21.90;60.00;;;;;;944893;149;27368;-75
2022/05/27 06:46:37;;;;;;;1.72;1.45;;;21.80;60.00;;;;;;944901;151;27293;-75
2022/05/27 06:49:03;;;;;;;1.22;1.12;;;21.70;59.90;;;;;;930065;151;27343;-75
2022/05/27 06:51:30;;;;;;;1.40;1.25;;;21.70;60.00;;;;;;943857;149;27420;-75
2022/05/27 06:53:56;;;;;;;1.67;1.32;;;21.60;60.10;;;;;;936412;151;27315;-76
2022/05/27 06:56:23;;;;;;;1.15;1.05;;;21.50;60.20;;;;;;935111;151;27725;-75
2022/05/27 06:58:49;;;;;;;1.30;1.20;;;21.50;60.40;;;;;;944312;151;27313;-75
2022/05/27 07:01:16;;;;;;;2.00;1.05;;;21.40;60.50;;;;;;927126;152;27289;-75
2022/05/27 07:03:43;;;;;;;1.60;1.40;;;21.40;60.70;;;;;;945285;151;27254;-75
2022/05/27 07:06:10;;;;;;;0.98;0.98;;;21.40;60.90;;;;;;938051;151;27297;-75
2022/05/27 07:08:36;;;;;;;1.00;1.00;;;21.40;60.90;;;;;;945625;151;27430;-75
2022/05/27 07:11:03;;;;;;;0.93;0.93;;;21.40;60.90;;;;;;937148;151;27790;-75
2022/05/27 07:13:29;;;;;;;1.70;1.10;;;21.40;60.80;;;;;;930384;154;27395;-75
2022/05/27 07:15:56;;;;;;;1.10;1.10;;;21.40;60.70;;;;;;931074;152;27314;-76
2022/05/27 07:18:22;;;;;;;1.15;1.10;;;21.40;60.80;;;;;;930398;152;27357;-75
2022/05/27 07:20:49;;;;;;;1.20;1.10;;;21.40;60.70;;;;;;938355;151;27321;-74
2022/05/27 07:23:17;;;;;;;3.05;1.27;;;21.40;60.60;;;;;;936165;151;27413;-76
2022/05/27 07:25:42;;;;;;;1.57;1.20;;;21.40;60.70;;;;;;929784;153;27322;-75
2022/05/27 07:28:10;;;;;;;1.50;1.40;;;21.40;60.50;;;;;;930043;151;27311;-76
2022/05/27 07:30:35;;;;;;;1.10;1.10;;;21.40;60.40;;;;;;928606;154;27436;-75
2022/05/27 07:33:02;;;;;;;1.05;0.93;;;21.30;60.40;;;;;;935680;151;27406;-75
2022/05/27 07:35:28;;;;;;;1.30;1.20;;;21.30;60.60;;;;;;928221;151;27444;-75
2022/05/27 07:37:55;;;;;;;1.25;1.15;;;21.20;60.50;;;;;;936170;151;27462;-75
2022/05/27 07:40:21;;;;;;;2.42;1.40;;;21.20;60.60;;;;;;930359;154;27320;-75
2022/05/27 07:42:48;;;;;;;1.17;1.15;;;21.20;60.80;;;;;;930337;151;27303;-75
2022/05/27 07:45:15;;;;;;;1.27;1.17;;;21.10;60.90;;;;;;948840;146;27459;-75
2022/05/27 07:47:41;;;;;;;1.10;1.10;;;21.10;60.90;;;;;;951035;149;27384;-75
2022/05/27 07:50:08;;;;;;;2.42;1.05;;;21.00;61.00;;;;;;960712;146;27362;-75
2022/05/27 07:52:36;;;;;;;1.20;1.10;;;21.00;61.10;;;;;;951604;150;27302;-76
2022/05/27 07:55:01;;;;;;;2.70;1.30;;;21.00;61.20;;;;;;948431;151;27327;-75
2022/05/27 07:57:28;;;;;;;1.55;1.20;;;21.00;61.40;;;;;;948564;148;27399;-75
2022/05/27 08:00:04;;;;;;;1.40;1.30;;;21.00;61.60;;;;;;948705;150;27388;-75
2022/05/27 08:02:30;;;;;;;1.92;1.15;;;21.00;61.70;;;;;;948608;150;27435;-75
2022/05/27 08:04:57;;;;;;;1.57;1.30;;;21.10;61.80;;;;;;948604;151;27327;-75
2022/05/27 08:07:23;;;;;;;1.92;1.22;;;21.20;62.00;;;;;;948571;150;27267;-75
2022/05/27 08:09:50;;;;;;;1.67;1.35;;;21.20;61.90;;;;;;948187;150;27291;-75
2022/05/27 08:12:17;;;;;;;1.05;1.02;;;21.30;61.90;;;;;;948404;150;27374;-75
2022/05/27 08:14:43;;;;;;;2.95;1.30;;;21.50;62.00;;;;;;948905;150;27327;-75
2022/05/27 08:17:09;;;;;;;5.25;2.75;;;21.60;62.00;;;;;;948722;150;27378;-75
2022/05/27 08:19:36;;;;;;;1.35;1.27;;;21.70;62.00;;;;;;948615;150;27278;-75
2022/05/27 08:22:03;;;;;;;1.07;1.02;;;21.90;61.80;;;;;;948121;150;27342;-75
2022/05/27 08:24:29;;;;;;;2.67;1.20;;;22.00;61.50;;;;;;947791;150;27443;-75
2022/05/27 08:26:56;;;;;;;1.80;1.10;;;22.10;61.20;;;;;;947954;150;27319;-75
2022/05/27 08:29:22;;;;;;;1.35;1.17;;;22.30;61.30;;;;;;947732;151;27418;-75
2022/05/27 08:31:49;;;;;;;0.80;0.75;;;22.40;61.00;;;;;;948625;150;28025;-75
2022/05/27 08:39:47;;;;;;;0.90;0.90;;;22.80;60.20;;;;;;947933;151;27947;-75
2022/05/27 08:42:32;;;;;;;1.72;1.05;;;22.90;60.00;;;;;;947708;151;27462;-75
2022/05/27 08:45:11;;;;;;;0.78;0.75;;;23.00;59.70;;;;;;948466;150;27439;-75
2022/05/27 08:47:37;;;;;;;1.30;0.88;;;23.10;59.60;;;;;;941106;151;27277;-75
2022/05/27 08:50:25;;;;;;;0.98;0.98;;;23.10;59.60;;;;;;940267;151;27414;-75
2022/05/27 08:53:01;;;;;;;1.07;1.00;;;23.20;59.30;;;;;;940717;151;27394;-75
2022/05/27 09:00:39;;;;;;;0.93;0.93;;;23.40;58.80;;;;;;942530;149;27443;-75
2022/05/27 09:03:05;;;;;;;1.70;1.05;;;23.40;58.60;;;;;;942606;149;27353;-75
2022/05/27 09:05:42;;;;;;;1.57;1.05;;;23.50;58.30;;;;;;942986;149;27817;-76
2022/05/27 09:08:23;;;;;;;0.90;0.90;;;23.40;58.20;;;;;;942409;149;27420;-75
2022/05/27 09:10:55;;;;;;;1.87;1.05;;;23.40;58.40;;;;;;941570;149;27834;-75
2022/05/27 09:13:34;;;;;;;1.02;1.02;;;23.50;58.60;;;;;;942915;149;27377;-75
2022/05/27 09:15:58;;;;;;;1.30;1.00;;;23.70;59.00;;;;;;942574;149;28482;-75
2022/05/27 09:18:27;;;;;;;1.80;1.20;;;23.90;58.90;;;;;;931013;149;27400;-75
2022/05/27 09:21:02;;;;;;;7.78;1.15;;;24.10;58.70;;;;;;942247;149;27331;-75
2022/05/27 09:23:31;;;;;;;0.80;0.80;;;24.30;58.50;;;;;;941548;149;27387;-75
2022/05/27 09:26:16;;;;;;;1.07;0.98;;;24.50;58.00;;;;;;941993;149;27364;-75
2022/05/27 09:29:13;;;;;;;0.88;0.68;;;24.60;57.40;;;;;;943393;149;27312;-76
2022/05/27 09:31:46;;;;;;;0.80;0.80;;;24.70;56.90;;;;;;942866;149;27409;-75
2022/05/27 09:34:12;;;;;;;0.95;0.93;;;24.80;56.60;;;;;;941753;149;27418;-75
2022/05/27 09:36:47;;;;;;;1.20;1.05;;;24.80;56.20;;;;;;942504;149;27366;-75
2022/05/27 09:39:14;;;;;;;1.82;0.78;;;24.70;55.80;;;;;;942473;149;27298;-76
2022/05/27 09:41:53;;;;;;;1.52;0.90;;;24.50;55.60;;;;;;941822;149;27422;-75
2022/05/27 09:44:22;;;;;;;0.90;0.90;;;24.40;55.80;;;;;;942956;149;27322;-75
2022/05/27 09:46:49;;;;;;;1.07;0.90;;;24.20;55.70;;;;;;942374;149;27508;-75
2022/05/27 09:49:15;;;;;;;1.55;0.75;;;24.00;55.80;;;;;;942602;149;27369;-75
2022/05/27 09:51:42;;;;;;;1.02;0.70;;;23.70;56.00;;;;;;942565;149;27413;-75
2022/05/27 09:54:21;;;;;;;0.80;0.80;;;23.60;56.30;;;;;;942471;149;27430;-75
2022/05/27 09:56:59;;;;;;;0.62;0.62;;;23.40;56.50;;;;;;942250;149;27318;-75
2022/05/27 09:59:35;;;;;;;0.60;0.60;;;23.30;56.70;;;;;;941788;149;27326;-75
2022/05/27 10:02:22;;;;;;;0.93;0.57;;;23.20;56.80;;;;;;942478;149;27310;-75
2022/05/27 10:05:07;;;;;;;0.70;0.70;;;23.00;57.00;;;;;;937720;149;27354;-75
2022/05/27 10:07:37;;;;;;;0.50;0.50;;;22.90;57.10;;;;;;942713;149;27299;-75
2022/05/27 10:10:21;;;;;;;1.05;0.80;;;22.90;57.40;;;;;;942087;149;27314;-75
2022/05/27 10:12:48;;;;;;;0.60;0.60;;;22.80;57.60;;;;;;942649;149;27287;-75
2022/05/27 10:15:27;;;;;;;4.45;0.80;;;22.80;57.90;;;;;;942329;149;27445;-75
2022/05/27 10:17:53;;;;;;;0.45;0.45;;;22.80;58.20;;;;;;942384;149;27347;-75
2022/05/27 10:20:29;;;;;;;1.05;0.60;;;22.90;58.40;;;;;;942307;149;27306;-75
2022/05/27 10:22:57;;;;;;;0.50;0.50;;;23.00;58.50;;;;;;942200;149;27427;-75
2022/05/27 10:25:33;;;;;;;0.53;0.53;;;23.10;58.80;;;;;;941940;149;27303;-75
2022/05/27 10:27:59;;;;;;;1.15;0.40;;;23.30;58.80;;;;;;941584;149;27455;-75
2022/05/27 10:30:28;;;;;;;0.95;0.60;;;23.50;58.50;;;;;;942155;149;27349;-75
2022/05/27 10:32:55;;;;;;;0.65;0.53;;;23.70;58.30;;;;;;941159;149;27441;-75
2022/05/27 10:35:22;;;;;;;1.45;0.50;;;23.90;58.00;;;;;;942458;149;27318;-75
2022/05/27 10:38:15;;;;;;;0.70;0.70;;;24.10;57.60;;;;;;942449;149;27480;-75
2022/05/27 10:41:03;;;;;;;0.80;0.68;;;24.20;57.30;;;;;;941338;149;27357;-75
2022/05/27 10:43:32;;;;;;;0.78;0.55;;;24.30;57.20;;;;;;941342;149;27385;-75
2022/05/27 10:45:59;;;;;;;0.70;0.70;;;24.50;56.80;;;;;;942662;149;27315;-75
2022/05/27 10:48:28;;;;;;;0.47;0.47;;;24.50;56.30;;;;;;927960;149;27387;-75
2022/05/27 10:51:00;;;;;;;1.20;0.80;;;24.50;56.10;;;;;;936904;150;27351;-74
2022/05/27 10:53:39;;;;;;;0.50;0.50;;;24.50;56.00;;;;;;942427;149;27376;-75
2022/05/27 10:56:06;;;;;;;0.40;0.40;;;24.60;56.20;;;;;;940700;149;27294;-75
2022/05/27 11:04:38;;;;;;;0.50;0.50;;;24.60;55.80;;;;;;942099;149;27312;-75
2022/05/27 11:07:08;;;;;;;0.50;0.50;;;24.60;55.80;;;;;;942776;149;27451;-75
2022/05/27 11:09:34;;;;;;;0.30;0.30;;;24.60;56.00;;;;;;942740;149;27310;-75
2022/05/27 11:12:13;;;;;;;0.93;0.47;;;24.70;56.20;;;;;;942379;149;27303;-75
2022/05/27 11:15:12;;;;;;;0.30;0.30;;;24.80;56.40;;;;;;942454;149;27341;-75
2022/05/27 11:18:09;;;;;;;0.45;0.45;;;25.00;56.20;;;;;;942806;149;27399;-75
2022/05/27 11:20:50;;;;;;;1.15;0.62;;;25.20;56.00;;;;;;942016;149;27459;-76
2022/05/27 11:23:32;;;;;;;0.72;0.72;;;25.40;55.80;;;;;;942041;149;27268;-75
2022/05/27 11:26:06;;;;;;;0.50;0.50;;;25.60;55.80;;;;;;942530;149;27787;-75
2022/05/27 11:28:50;;;;;;;0.23;0.23;;;25.80;55.80;;;;;;940424;149;27284;-75
2022/05/27 11:31:24;;;;;;;4.55;0.60;;;26.00;55.80;;;;;;942766;149;27339;-75
2022/05/27 11:33:55;;;;;;;0.30;0.20;;;26.20;55.30;;;;;;941544;149;27496;-75
2022/05/27 11:36:42;;;;;;;0.40;0.40;;;26.40;54.80;;;;;;941657;149;27435;-75
2022/05/27 11:39:50;;;;;;;0.53;0.40;;;26.60;54.40;;;;;;942352;149;27294;-75
2022/05/27 11:42:13;;;;;;;1.50;0.60;;;26.80;54.20;;;;;;941991;149;27317;-75
2022/05/27 11:44:44;;;;;;;0.20;0.20;;;26.90;54.00;;;;;;940977;149;27468;-75
2022/05/27 11:47:14;;;;;;;0.33;0.30;;;27.00;53.50;;;;;;926658;149;27358;-74
2022/05/27 11:49:46;;;;;;;0.25;0.25;;;27.10;53.30;;;;;;916138;154;27436;-76
2022/05/27 11:52:43;;;;;;;0.72;0.35;;;27.20;53.20;;;;;;928319;151;27435;-75
2022/05/27 11:55:40;;;;;;;1.47;0.57;;;27.30;53.00;;;;;;929821;151;27438;-75
2022/05/27 11:58:09;;;;;;;1.10;0.47;;;27.30;52.90;;;;;;947232;151;27343;-75
2022/05/27 12:00:36;;;;;;;0.35;0.35;;;27.40;52.60;;;;;;931488;154;27373;-76
2022/05/27 12:03:05;;;;;;;0.25;0.25;;;27.40;52.40;;;;;;932027;151;27472;-75
2022/05/27 12:05:34;;;;;;;0.53;0.40;;;27.40;52.10;;;;;;931240;151;27374;-75
2022/05/27 12:08:22;;;;;;;0.30;0.30;;;27.40;51.40;;;;;;933001;151;27435;-75
2022/05/27 12:10:49;;;;;;;0.30;0.30;;;27.30;51.00;;;;;;945217;151;27296;-75
2022/05/27 12:13:27;;;;;;;2.35;0.20;;;27.10;50.70;;;;;;945629;151;27345;-75
2022/05/27 12:16:12;;;;;;;0.53;0.20;;;26.80;51.00;;;;;;945384;151;27345;-75
2022/05/27 12:18:39;;;;;;;0.55;0.30;;;26.50;51.50;;;;;;945338;151;27425;-76
2022/05/27 12:21:05;;;;;;;0.75;0.23;;;26.10;51.70;;;;;;944847;151;27366;-75
2022/05/27 12:23:32;;;;;;;0.90;0.40;;;25.60;52.00;;;;;;945794;149;27301;-75
2022/05/27 12:25:59;;;;;;;0.72;0.40;;;25.20;52.60;;;;;;945727;149;27361;-75
2022/05/27 12:28:29;;;;;;;0.30;0.30;;;24.70;53.10;;;;;;945470;151;27351;-75
2022/05/27 12:30:56;;;;;;;0.60;0.60;;;24.30;53.60;;;;;;944742;151;27436;-75
2022/05/27 12:33:21;;;;;;;0.45;0.45;;;23.80;54.00;;;;;;945374;151;28461;-75
2022/05/27 12:35:59;;;;;;;0.72;0.72;;;23.40;54.50;;;;;;943820;151;27381;-75
2022/05/27 12:38:23;;;;;;;0.70;0.70;;;23.10;55.00;;;;;;945234;151;27396;-75
2022/05/27 12:40:51;;;;;;;0.57;0.57;;;22.70;55.30;;;;;;944886;151;27323;-75
2022/05/27 12:43:20;;;;;;;0.60;0.60;;;22.50;55.70;;;;;;945501;151;27396;-74
2022/05/27 12:45:53;;;;;;;0.70;0.70;;;22.30;56.40;;;;;;944667;151;27335;-75
2022/05/27 12:48:37;;;;;;;0.80;0.70;;;22.10;56.80;;;;;;946861;149;27394;-75
2022/05/27 12:51:16;;;;;;;1.10;1.00;;;21.90;57.20;;;;;;952346;150;27326;-75
2022/05/27 12:53:49;;;;;;;0.85;0.80;;;21.80;57.40;;;;;;953656;149;27429;-74
2022/05/27 13:02:18;;;;;;;0.93;0.93;;;21.60;58.90;;;;;;952681;150;27374;-75
2022/05/27 13:04:48;;;;;;;0.85;0.85;;;21.60;59.30;;;;;;950373;150;27465;-75
2022/05/27 13:07:14;;;;;;;1.10;1.00;;;21.70;59.60;;;;;;951567;150;27426;-75
2022/05/27 13:09:42;;;;;;;0.75;0.75;;;21.80;60.00;;;;;;953159;149;27299;-75
2022/05/27 13:12:08;;;;;;;1.20;1.10;;;21.90;60.30;;;;;;953284;148;27231;-75
2022/05/27 13:14:37;;;;;;;1.00;1.00;;;22.20;60.50;;;;;;953513;149;27440;-75
2022/05/27 13:17:16;;;;;;;2.30;1.10;;;22.50;60.40;;;;;;953244;149;27992;-75
2022/05/27 13:19:42;;;;;;;1.17;1.07;;;22.70;60.00;;;;;;953412;150;27251;-76
2022/05/27 13:22:15;;;;;;;0.62;0.62;;;23.00;59.60;;;;;;952679;150;27291;-75
2022/05/27 13:24:42;;;;;;;0.93;0.90;;;23.20;59.10;;;;;;952523;150;27271;-75
2022/05/27 13:27:32;;;;;;;0.82;0.60;;;23.40;59.00;;;;;;952754;150;27264;-75
2022/05/27 13:30:05;;;;;;;1.15;1.05;;;23.50;59.10;;;;;;952575;150;27814;-75
2022/05/27 13:32:31;;;;;;;0.60;0.60;;;23.70;58.90;;;;;;952185;150;27343;-75
2022/05/27 13:35:10;;;;;;;2.50;0.85;;;23.90;59.10;;;;;;952533;150;27373;-75
2022/05/27 13:37:39;;;;;;;0.90;0.90;;;24.00;58.00;;;;;;952501;150;27295;-75